Time;durP1;ratioP1;P1;durP2;ratioP2;P2;SDS_P1;SDS_P2;PMS_P1;PMS_P2;Temp;Humidity;BMP_temperature;BMP_pressure;BME280_temperature;BME280_humidity;BME280_pressure;Samples;Min_cycle;Max_cycle;Signal;HPM_P1;HPM_P2
2021/07/27 00:01:20;;;;;;;7.07;5.60;;;17.80;99.90;;;;;;5011283;28;20439;-68
2021/07/27 00:03:47;;;;;;;8.03;6.60;;;17.70;99.90;;;;;;5010651;28;20435;-68
2021/07/27 00:06:14;;;;;;;7.70;5.97;;;17.70;99.90;;;;;;5010998;28;20482;-68
2021/07/27 00:08:43;;;;;;;7.70;5.87;;;17.60;99.90;;;;;;5010819;28;20446;-68
2021/07/27 00:11:13;;;;;;;7.23;6.00;;;17.70;99.90;;;;;;5011237;28;20447;-68
2021/07/27 00:13:42;;;;;;;6.90;4.90;;;17.60;99.90;;;;;;5010535;28;20469;-68
2021/07/27 00:16:10;;;;;;;9.10;6.10;;;17.60;99.90;;;;;;5011087;28;20799;-68
2021/07/27 00:18:37;;;;;;;8.40;6.43;;;17.60;99.90;;;;;;5010554;28;20439;-68
2021/07/27 00:21:05;;;;;;;14.33;6.77;;;17.60;99.90;;;;;;5010813;28;20434;-68
2021/07/27 00:23:34;;;;;;;11.43;6.20;;;17.60;99.90;;;;;;5010219;28;20431;-68
2021/07/27 00:26:05;;;;;;;6.93;6.10;;;17.50;99.90;;;;;;5010842;28;20493;-68
2021/07/27 00:28:32;;;;;;;8.33;6.50;;;17.40;99.90;;;;;;5010131;28;20474;-68
2021/07/27 00:30:59;;;;;;;7.73;5.97;;;17.40;99.90;;;;;;5010929;28;20471;-68
2021/07/27 00:33:26;;;;;;;8.63;6.83;;;17.40;99.90;;;;;;5009824;28;20438;-68
2021/07/27 00:35:54;;;;;;;10.57;8.10;;;17.40;99.90;;;;;;5010711;28;20496;-68
2021/07/27 00:38:22;;;;;;;9.73;7.70;;;17.40;99.90;;;;;;5009934;28;20839;-68
2021/07/27 00:40:51;;;;;;;8.77;7.73;;;17.30;99.90;;;;;;5010380;28;20443;-68
2021/07/27 00:43:20;;;;;;;9.50;6.80;;;17.20;99.90;;;;;;5009954;28;20528;-68
2021/07/27 00:45:48;;;;;;;12.37;6.53;;;17.10;99.90;;;;;;5009636;28;20477;-69
2021/07/27 00:48:18;;;;;;;14.90;7.47;;;17.10;99.90;;;;;;5010629;28;20457;-69
2021/07/27 00:50:45;;;;;;;8.67;7.63;;;17.00;99.90;;;;;;5010027;28;20435;-68
2021/07/27 00:53:15;;;;;;;12.80;7.40;;;17.00;99.90;;;;;;5009916;28;20450;-68
2021/07/27 00:55:43;;;;;;;7.80;6.60;;;17.00;99.90;;;;;;5010515;28;20431;-68
2021/07/27 00:58:10;;;;;;;7.77;6.60;;;16.90;99.90;;;;;;5010584;28;20435;-68
2021/07/27 01:00:39;;;;;;;8.83;6.40;;;16.90;99.90;;;;;;5009832;28;20443;-68
2021/07/27 01:03:08;;;;;;;5.53;4.83;;;16.90;99.90;;;;;;5010242;28;21198;-68
2021/07/27 01:05:37;;;;;;;8.27;7.17;;;16.90;99.90;;;;;;5009608;28;20495;-68
2021/07/27 01:08:05;;;;;;;7.77;6.97;;;16.90;99.90;;;;;;5010410;28;20530;-68
2021/07/27 01:10:33;;;;;;;7.23;5.83;;;16.80;99.90;;;;;;5010024;28;20941;-68
2021/07/27 01:13:00;;;;;;;9.33;7.70;;;16.80;99.90;;;;;;5009605;28;20440;-68
2021/07/27 01:15:28;;;;;;;9.20;6.73;;;16.80;99.90;;;;;;5009920;28;20958;-68
2021/07/27 01:18:03;;;;;;;8.67;7.00;;;16.70;99.90;;;;;;5009748;28;20954;-68
2021/07/27 01:20:38;;;;;;;8.63;7.03;;;16.70;99.90;;;;;;5010084;28;20802;-68
2021/07/27 01:39:42;;;;;;;7.87;5.80;;;17.00;99.90;;;;;;5009999;28;20418;-68
2021/07/27 01:42:10;;;;;;;8.17;6.20;;;17.10;99.90;;;;;;5009270;28;20435;-68
2021/07/27 01:44:45;;;;;;;5.90;4.83;;;17.10;99.90;;;;;;5009833;28;20439;-68
2021/07/27 01:47:18;;;;;;;6.30;4.93;;;17.10;99.90;;;;;;5009358;28;20832;-68
2021/07/27 01:49:46;;;;;;;6.33;4.73;;;17.20;99.90;;;;;;5009662;28;20558;-68
2021/07/27 01:52:17;;;;;;;7.93;5.33;;;17.20;99.90;;;;;;5008235;28;20491;-68
2021/07/27 01:54:55;;;;;;;8.97;4.27;;;17.20;99.90;;;;;;5009898;28;20461;-68
2021/07/27 01:57:22;;;;;;;8.30;6.30;;;17.20;99.90;;;;;;5012753;28;20438;-68
2021/07/27 02:00:08;;;;;;;6.73;4.87;;;17.10;99.90;;;;;;5012623;28;20439;-68
2021/07/27 02:02:35;;;;;;;8.43;6.03;;;17.10;99.90;;;;;;5012825;28;20449;-68
2021/07/27 02:05:04;;;;;;;6.17;5.40;;;17.10;99.90;;;;;;5013084;28;20443;-68
2021/07/27 02:07:31;;;;;;;6.33;4.80;;;17.10;99.90;;;;;;5012491;28;20482;-68
2021/07/27 02:10:12;;;;;;;9.37;6.03;;;17.00;99.90;;;;;;5012754;28;20442;-68
2021/07/27 02:12:49;;;;;;;6.77;5.40;;;17.00;99.90;;;;;;5012950;28;20438;-68
2021/07/27 02:15:18;;;;;;;7.70;6.30;;;17.00;99.90;;;;;;5012276;28;20438;-68
2021/07/27 02:17:46;;;;;;;9.07;6.30;;;16.90;99.90;;;;;;5012968;28;20438;-68
2021/07/27 02:20:14;;;;;;;8.40;5.20;;;16.90;99.90;;;;;;5012093;28;20447;-68
2021/07/27 02:22:41;;;;;;;6.93;5.30;;;16.90;99.90;;;;;;5012740;28;20928;-68
2021/07/27 02:25:11;;;;;;;10.90;4.70;;;16.90;99.90;;;;;;5012374;28;20439;-68
2021/07/27 02:27:39;;;;;;;6.70;5.93;;;16.90;99.90;;;;;;5012277;28;20490;-68
2021/07/27 02:30:09;;;;;;;7.30;5.40;;;17.00;99.90;;;;;;5012289;28;21007;-68
2021/07/27 02:32:37;;;;;;;6.87;5.63;;;16.90;99.90;;;;;;5012813;28;20466;-68
2021/07/27 02:35:06;;;;;;;5.60;4.83;;;16.90;99.90;;;;;;5012336;28;20566;-68
2021/07/27 02:37:34;;;;;;;5.70;4.97;;;16.90;99.90;;;;;;5012686;28;20769;-67
2021/07/27 02:40:01;;;;;;;5.93;5.30;;;16.90;99.90;;;;;;5011957;28;20443;-68
2021/07/27 02:42:30;;;;;;;6.30;4.80;;;16.90;99.90;;;;;;5012307;28;20430;-68
2021/07/27 02:44:57;;;;;;;5.90;5.20;;;16.90;99.90;;;;;;5012098;28;20975;-68
2021/07/27 02:47:25;;;;;;;6.00;5.07;;;16.90;99.90;;;;;;5012309;28;20543;-68
2021/07/27 02:49:52;;;;;;;6.33;4.73;;;16.90;99.90;;;;;;5011759;28;20997;-68
2021/07/27 02:52:20;;;;;;;5.43;4.60;;;16.80;99.90;;;;;;5012220;28;20439;-68
2021/07/27 02:54:47;;;;;;;5.17;4.10;;;16.80;99.90;;;;;;5011931;28;20529;-68
2021/07/27 02:57:14;;;;;;;6.27;4.57;;;16.70;99.90;;;;;;5012388;28;20443;-68
2021/07/27 02:59:43;;;;;;;6.10;4.40;;;16.70;99.90;;;;;;5011671;28;20447;-68
2021/07/27 03:02:10;;;;;;;7.10;5.90;;;16.70;99.90;;;;;;5012326;28;20461;-68
2021/07/27 03:04:38;;;;;;;6.00;5.40;;;16.70;99.90;;;;;;5011933;28;20439;-67
2021/07/27 03:07:06;;;;;;;6.77;5.37;;;16.60;99.90;;;;;;5011651;28;20626;-68
2021/07/27 03:09:44;;;;;;;6.80;5.43;;;16.60;99.90;;;;;;5011472;28;20465;-68
2021/07/27 03:12:13;;;;;;;7.77;5.50;;;16.60;99.90;;;;;;5011988;28;20936;-68
2021/07/27 03:14:42;;;;;;;6.57;5.80;;;16.70;99.90;;;;;;5011363;28;20939;-68
2021/07/27 03:17:09;;;;;;;5.20;4.40;;;16.60;99.90;;;;;;5011830;28;20469;-68
2021/07/27 03:19:36;;;;;;;6.50;5.63;;;16.70;99.90;;;;;;5011244;28;20470;-68
2021/07/27 03:22:04;;;;;;;6.93;5.00;;;16.70;99.90;;;;;;5011991;28;20791;-68
2021/07/27 03:24:31;;;;;;;6.23;5.53;;;16.60;99.90;;;;;;5011457;28;20439;-68
2021/07/27 03:26:58;;;;;;;5.90;4.63;;;16.70;99.90;;;;;;5011741;28;20485;-68
2021/07/27 03:29:27;;;;;;;5.73;5.00;;;16.60;99.90;;;;;;5011335;28;20985;-68
2021/07/27 03:31:56;;;;;;;6.07;5.03;;;16.60;99.90;;;;;;5011829;28;20499;-68
2021/07/27 03:34:23;;;;;;;6.90;5.60;;;16.60;99.90;;;;;;5011349;28;20952;-68
2021/07/27 03:36:50;;;;;;;5.90;5.00;;;16.50;99.90;;;;;;5011621;28;20439;-69
2021/07/27 03:39:17;;;;;;;7.60;5.33;;;16.50;99.90;;;;;;5011154;28;20474;-69
2021/07/27 03:41:45;;;;;;;6.50;5.70;;;16.40;99.90;;;;;;5011616;28;20439;-68
2021/07/27 03:44:12;;;;;;;8.47;5.30;;;16.40;99.90;;;;;;5011270;28;20446;-68
2021/07/27 03:46:53;;;;;;;6.27;4.60;;;16.50;99.90;;;;;;5011607;28;20482;-68
2021/07/27 03:49:21;;;;;;;6.33;5.10;;;16.40;99.90;;;;;;5010822;28;20483;-69
2021/07/27 03:51:49;;;;;;;6.20;5.20;;;16.30;99.90;;;;;;5011413;28;20442;-68
2021/07/27 03:54:16;;;;;;;7.73;5.20;;;16.30;99.90;;;;;;5011062;28;20833;-68
2021/07/27 03:56:43;;;;;;;5.63;4.53;;;16.20;99.90;;;;;;5011352;28;20449;-69
2021/07/27 03:59:14;;;;;;;7.53;5.67;;;16.20;99.90;;;;;;5010477;28;20446;-70
2021/07/27 04:01:42;;;;;;;7.67;5.40;;;16.20;99.90;;;;;;5011593;28;20867;-68
2021/07/27 04:04:09;;;;;;;14.23;7.00;;;16.20;99.90;;;;;;5010871;28;20458;-68
2021/07/27 04:06:38;;;;;;;12.60;6.83;;;16.20;99.90;;;;;;5011317;28;20474;-68
2021/07/27 04:09:05;;;;;;;9.60;6.70;;;16.20;99.90;;;;;;5009134;28;20446;-69
2021/07/27 04:11:32;;;;;;;7.70;5.87;;;16.10;99.90;;;;;;5011202;28;20542;-68
2021/07/27 04:13:59;;;;;;;7.03;5.37;;;16.10;99.90;;;;;;5010846;28;20450;-68
2021/07/27 04:16:26;;;;;;;5.70;4.50;;;16.10;99.90;;;;;;5011269;28;20454;-68
2021/07/27 04:18:58;;;;;;;6.40;4.50;;;16.10;99.90;;;;;;5009215;28;20511;-68
2021/07/27 04:21:25;;;;;;;8.93;4.83;;;16.20;99.90;;;;;;5011069;28;20439;-68
2021/07/27 04:23:54;;;;;;;6.30;4.57;;;16.20;99.90;;;;;;5010873;28;20852;-68
2021/07/27 04:26:21;;;;;;;4.60;3.83;;;16.30;99.90;;;;;;5010727;28;21050;-69
2021/07/27 04:28:53;;;;;;;5.73;4.87;;;16.20;99.90;;;;;;5009922;28;20478;-68
2021/07/27 04:31:20;;;;;;;6.07;4.60;;;16.30;99.90;;;;;;5010808;28;20450;-68
2021/07/27 04:33:48;;;;;;;8.50;4.63;;;16.20;99.90;;;;;;5010412;28;20478;-68
2021/07/27 04:36:20;;;;;;;7.57;4.50;;;16.20;99.90;;;;;;5010826;28;20442;-68
2021/07/27 04:38:47;;;;;;;7.40;4.50;;;16.20;99.90;;;;;;5010041;28;20438;-68
2021/07/27 04:41:17;;;;;;;7.10;5.50;;;16.30;99.90;;;;;;5010716;28;20439;-69
2021/07/27 04:43:44;;;;;;;6.60;5.50;;;16.30;99.90;;;;;;5009610;28;20439;-69
2021/07/27 04:46:11;;;;;;;6.00;4.57;;;16.30;99.90;;;;;;5010381;28;20439;-69
2021/07/27 04:48:39;;;;;;;6.33;4.40;;;16.30;99.90;;;;;;5009892;28;20482;-68
2021/07/27 04:51:06;;;;;;;5.97;5.10;;;16.30;99.90;;;;;;5004994;28;20526;-69
2021/07/27 04:53:37;;;;;;;5.97;4.43;;;16.40;99.90;;;;;;4990568;28;20555;-67
2021/07/27 04:56:07;;;;;;;8.63;5.07;;;16.40;99.90;;;;;;4991970;28;20436;-68
2021/07/27 04:58:36;;;;;;;9.43;5.73;;;16.40;99.90;;;;;;4991379;28;20444;-68
2021/07/27 05:01:03;;;;;;;8.30;4.70;;;16.40;99.90;;;;;;4992798;28;20478;-68
2021/07/27 05:03:33;;;;;;;5.63;4.57;;;16.50;99.90;;;;;;4991384;28;20472;-69
2021/07/27 05:06:04;;;;;;;6.07;5.47;;;16.50;99.90;;;;;;5065660;28;20473;-68
2021/07/27 05:08:31;;;;;;;9.17;5.37;;;16.60;99.90;;;;;;5058494;28;20490;-68
2021/07/27 05:11:02;;;;;;;8.43;6.20;;;16.70;99.90;;;;;;4990423;28;20475;-67
2021/07/27 05:13:29;;;;;;;6.60;4.97;;;16.70;99.90;;;;;;4991830;28;20940;-68
2021/07/27 05:16:01;;;;;;;10.50;6.07;;;16.70;99.90;;;;;;4994484;28;20439;-68
2021/07/27 05:18:34;;;;;;;11.03;5.60;;;16.80;99.90;;;;;;5004300;28;20442;-68
2021/07/27 05:21:01;;;;;;;8.43;5.30;;;16.90;99.90;;;;;;5007535;28;20446;-68
2021/07/27 05:23:28;;;;;;;5.73;4.53;;;17.00;99.90;;;;;;4993024;28;20547;-68
2021/07/27 05:25:56;;;;;;;6.57;4.77;;;17.00;99.90;;;;;;4990066;28;20475;-68
2021/07/27 05:28:23;;;;;;;7.60;6.00;;;16.90;99.90;;;;;;4993646;28;21008;-68
2021/07/27 05:30:50;;;;;;;6.50;4.70;;;16.90;99.90;;;;;;4990702;28;20446;-68
2021/07/27 05:33:18;;;;;;;5.33;4.53;;;16.90;99.90;;;;;;4989758;28;20948;-68
2021/07/27 05:35:46;;;;;;;6.23;4.90;;;17.00;99.90;;;;;;4995251;28;20757;-68
2021/07/27 05:38:13;;;;;;;7.10;5.60;;;17.00;99.90;;;;;;5006549;28;20522;-68
2021/07/27 05:40:41;;;;;;;6.57;4.83;;;16.90;99.90;;;;;;5006741;28;20515;-68
2021/07/27 05:43:08;;;;;;;6.43;5.37;;;17.00;99.90;;;;;;5007016;28;20438;-68
2021/07/27 05:45:38;;;;;;;9.00;7.93;;;17.00;99.90;;;;;;5006665;28;20495;-69
2021/07/27 05:48:06;;;;;;;10.53;6.83;;;17.00;99.90;;;;;;5006457;28;20613;-68
2021/07/27 05:50:35;;;;;;;9.37;6.33;;;17.10;99.90;;;;;;4998564;28;20443;-68
2021/07/27 05:53:02;;;;;;;7.07;5.83;;;17.10;99.90;;;;;;5055627;28;20442;-68
2021/07/27 05:55:29;;;;;;;10.10;6.43;;;17.20;99.90;;;;;;4989328;28;20941;-69
2021/07/27 05:57:56;;;;;;;13.77;10.33;;;17.10;99.90;;;;;;4988099;28;20974;-68
2021/07/27 06:00:28;;;;;;;10.00;8.07;;;17.20;99.90;;;;;;5051011;28;20532;-68
2021/07/27 06:02:55;;;;;;;18.73;13.77;;;17.30;99.90;;;;;;5069269;28;20454;-69
2021/07/27 06:05:23;;;;;;;8.50;7.60;;;17.40;99.90;;;;;;5064258;28;20480;-68
2021/07/27 06:07:51;;;;;;;14.30;10.07;;;17.40;99.90;;;;;;5059065;28;20581;-68
2021/07/27 06:10:19;;;;;;;41.10;25.40;;;17.50;99.90;;;;;;4990875;28;20519;-67
2021/07/27 06:12:46;;;;;;;13.63;9.93;;;17.60;99.90;;;;;;4996216;28;20446;-68
2021/07/27 06:15:14;;;;;;;9.43;6.67;;;17.70;99.90;;;;;;5010874;28;20438;-68
2021/07/27 06:17:41;;;;;;;11.17;5.50;;;17.80;99.90;;;;;;4999073;28;20451;-69
2021/07/27 06:20:09;;;;;;;12.73;7.93;;;17.90;99.90;;;;;;4999210;28;20443;-68
2021/07/27 06:22:35;;;;;;;11.17;6.53;;;18.00;99.90;;;;;;5012895;28;20529;-68
2021/07/27 06:25:10;;;;;;;9.97;6.80;;;18.00;99.90;;;;;;5010206;28;20870;-68
2021/07/27 06:27:37;;;;;;;10.67;7.60;;;18.10;99.90;;;;;;4998353;28;20500;-70
2021/07/27 06:30:07;;;;;;;8.00;6.60;;;18.20;99.90;;;;;;5001708;28;20439;-68
2021/07/27 06:32:34;;;;;;;7.73;5.43;;;18.30;99.90;;;;;;5026113;28;20438;-68
2021/07/27 06:35:01;;;;;;;6.60;4.90;;;18.40;99.90;;;;;;4989380;28;20534;-67
2021/07/27 06:37:28;;;;;;;5.53;4.93;;;18.50;99.90;;;;;;4991266;28;20531;-68
2021/07/27 06:39:56;;;;;;;4.93;4.43;;;18.60;99.90;;;;;;5004474;28;20467;-68
2021/07/27 06:42:24;;;;;;;5.57;4.47;;;18.70;99.90;;;;;;5012450;28;20503;-68
2021/07/27 06:44:51;;;;;;;8.40;6.17;;;18.80;99.90;;;;;;5038156;28;20537;-68
2021/07/27 06:47:18;;;;;;;6.20;5.60;;;18.90;99.90;;;;;;5060597;28;20530;-68
2021/07/27 06:49:45;;;;;;;10.27;4.87;;;19.10;99.90;;;;;;5048676;28;20545;-71
2021/07/27 06:52:12;;;;;;;5.60;4.77;;;19.20;99.90;;;;;;5072250;28;20474;-69
2021/07/27 06:54:39;;;;;;;8.20;6.50;;;19.30;99.90;;;;;;5005691;28;20967;-68
2021/07/27 06:57:08;;;;;;;8.40;5.07;;;19.40;99.90;;;;;;4998705;28;20501;-69
2021/07/27 06:59:37;;;;;;;6.20;4.83;;;19.60;99.60;;;;;;5002968;28;20439;-68
2021/07/27 07:02:05;;;;;;;7.87;4.70;;;19.70;99.40;;;;;;4992100;28;20480;-69
2021/07/27 07:04:32;;;;;;;18.20;13.63;;;19.80;99.20;;;;;;4995138;28;20447;-68
2021/07/27 07:07:00;;;;;;;12.13;6.33;;;19.90;97.90;;;;;;4991928;28;20520;-70
2021/07/27 07:09:27;;;;;;;6.93;4.57;;;20.00;97.30;;;;;;5024532;28;20510;-68
2021/07/27 07:11:56;;;;;;;6.50;4.53;;;20.10;97.70;;;;;;5008934;28;20443;-69
2021/07/27 07:14:23;;;;;;;5.00;3.83;;;20.20;97.90;;;;;;5004094;28;20439;-68
2021/07/27 07:16:52;;;;;;;5.50;4.50;;;20.30;98.10;;;;;;4992130;28;20448;-69
2021/07/27 07:19:19;;;;;;;4.90;4.20;;;20.50;97.60;;;;;;5000601;28;20478;-68
2021/07/27 07:21:46;;;;;;;6.23;5.13;;;20.60;97.80;;;;;;5008012;28;20979;-69
2021/07/27 07:24:14;;;;;;;8.47;5.53;;;20.70;97.90;;;;;;5009543;28;20443;-68
2021/07/27 07:26:41;;;;;;;6.40;4.80;;;20.90;97.90;;;;;;5004263;28;20439;-68
2021/07/27 07:29:09;;;;;;;4.60;3.80;;;21.00;97.60;;;;;;5008581;28;20533;-67
2021/07/27 07:31:36;;;;;;;5.37;3.93;;;21.10;96.30;;;;;;4997566;28;20447;-68
2021/07/27 07:34:06;;;;;;;4.43;3.67;;;21.30;96.50;;;;;;4991804;28;20465;-68
2021/07/27 07:36:33;;;;;;;4.43;3.40;;;21.40;95.80;;;;;;5014161;28;20947;-68
2021/07/27 07:39:01;;;;;;;4.57;3.40;;;21.50;95.00;;;;;;5008753;28;20452;-68
2021/07/27 07:41:30;;;;;;;4.80;3.80;;;21.60;93.80;;;;;;5008011;28;20443;-68
2021/07/27 07:43:57;;;;;;;5.53;3.63;;;21.70;94.00;;;;;;5007833;28;20571;-68
2021/07/27 07:46:27;;;;;;;6.00;4.33;;;21.80;94.10;;;;;;5008372;28;20495;-68
2021/07/27 07:48:54;;;;;;;5.17;4.27;;;21.90;94.60;;;;;;5008891;28;20536;-68
2021/07/27 07:51:26;;;;;;;5.07;3.97;;;22.00;94.60;;;;;;5007877;28;20443;-71
2021/07/27 07:53:53;;;;;;;6.50;5.07;;;22.20;94.80;;;;;;5014407;28;20431;-68
2021/07/27 07:56:20;;;;;;;5.80;4.37;;;22.30;94.80;;;;;;5001213;28;20540;-68
2021/07/27 07:58:50;;;;;;;6.13;4.60;;;22.40;94.60;;;;;;5003776;28;20435;-69
2021/07/27 08:01:17;;;;;;;5.43;4.30;;;22.50;93.60;;;;;;5021522;28;20446;-68
2021/07/27 08:03:45;;;;;;;5.70;4.40;;;22.60;93.00;;;;;;4992416;28;20882;-69
2021/07/27 08:06:12;;;;;;;4.17;3.70;;;22.80;93.20;;;;;;4991270;28;20443;-68
2021/07/27 08:08:41;;;;;;;4.53;3.80;;;22.90;92.80;;;;;;4991074;28;20514;-68
2021/07/27 08:11:12;;;;;;;5.00;3.90;;;23.10;93.00;;;;;;4995854;28;20526;-67
2021/07/27 08:13:40;;;;;;;5.90;4.10;;;23.20;92.40;;;;;;5067066;28;20446;-68
2021/07/27 08:16:09;;;;;;;5.93;3.67;;;23.30;92.30;;;;;;5008349;28;20444;-68
2021/07/27 08:18:37;;;;;;;4.57;3.37;;;23.40;89.80;;;;;;5008457;28;20771;-68
2021/07/27 08:21:06;;;;;;;4.83;3.03;;;23.50;90.90;;;;;;5007132;28;20526;-68
2021/07/27 08:23:33;;;;;;;4.80;4.00;;;23.60;91.50;;;;;;5007972;28;20439;-68
2021/07/27 08:26:03;;;;;;;5.10;3.60;;;23.70;89.90;;;;;;4996659;28;20455;-68
2021/07/27 08:28:31;;;;;;;4.40;3.43;;;23.80;90.10;;;;;;4990572;28;21038;-70
2021/07/27 08:30:58;;;;;;;4.77;3.30;;;23.90;90.70;;;;;;4993412;28;20490;-68
2021/07/27 08:33:25;;;;;;;8.43;3.67;;;24.00;90.30;;;;;;5005198;28;20439;-68
2021/07/27 08:35:52;;;;;;;4.30;2.60;;;24.10;89.00;;;;;;5007726;28;20509;-68
2021/07/27 08:38:20;;;;;;;3.57;3.17;;;24.30;86.90;;;;;;5007253;28;20471;-68
2021/07/27 08:40:49;;;;;;;5.93;3.10;;;24.40;86.70;;;;;;5007680;28;20833;-68
2021/07/27 08:43:19;;;;;;;5.80;3.30;;;24.60;87.90;;;;;;5008088;28;20530;-68
2021/07/27 08:45:50;;;;;;;4.43;3.30;;;24.70;86.60;;;;;;5006939;28;20434;-70
2021/07/27 08:48:19;;;;;;;5.50;3.13;;;24.70;82.60;;;;;;5068260;28;20476;-69
2021/07/27 08:50:47;;;;;;;4.50;3.10;;;24.70;80.00;;;;;;5027837;28;20465;-68
2021/07/27 08:53:16;;;;;;;5.30;3.60;;;24.80;83.70;;;;;;5007063;28;20441;-70
2021/07/27 08:55:43;;;;;;;4.80;3.60;;;24.90;83.50;;;;;;5048733;28;20984;-69
2021/07/27 08:58:10;;;;;;;4.37;3.67;;;25.10;82.10;;;;;;4990589;28;20535;-69
2021/07/27 09:00:39;;;;;;;7.27;3.40;;;25.30;80.40;;;;;;4998098;28;20428;-69
2021/07/27 09:03:09;;;;;;;4.90;3.37;;;25.60;76.20;;;;;;5011084;28;20517;-68
2021/07/27 09:05:37;;;;;;;4.20;3.03;;;25.80;77.10;;;;;;5008544;28;20512;-69
2021/07/27 09:08:06;;;;;;;4.50;3.20;;;26.20;75.50;;;;;;5009315;28;20862;-68
2021/07/27 09:10:34;;;;;;;7.10;3.17;;;26.60;77.80;;;;;;5010034;28;20443;-68
2021/07/27 09:13:04;;;;;;;4.40;3.30;;;27.10;76.50;;;;;;5003725;28;20808;-68
2021/07/27 09:15:34;;;;;;;4.47;3.40;;;27.50;74.00;;;;;;4990629;28;20444;-68
2021/07/27 09:18:04;;;;;;;4.80;3.00;;;27.70;70.30;;;;;;5010723;28;20522;-69
2021/07/27 09:20:34;;;;;;;3.63;3.10;;;27.90;69.70;;;;;;5008098;28;20450;-68
2021/07/27 09:23:02;;;;;;;5.00;3.60;;;28.10;66.40;;;;;;4994506;28;20470;-68
2021/07/27 09:25:31;;;;;;;4.37;3.07;;;28.10;64.90;;;;;;4992854;28;20501;-68
2021/07/27 09:28:02;;;;;;;4.47;2.93;;;28.10;66.70;;;;;;5007645;28;20475;-69
2021/07/27 09:30:30;;;;;;;3.70;3.13;;;28.20;66.10;;;;;;5001327;28;20532;-68
2021/07/27 09:32:57;;;;;;;4.90;3.00;;;28.20;65.00;;;;;;4993348;28;20440;-69
2021/07/27 09:35:27;;;;;;;4.60;3.43;;;28.20;62.70;;;;;;5004281;28;20438;-68
2021/07/27 09:38:09;;;;;;;6.33;4.20;;;28.20;64.80;;;;;;5005956;28;20450;-68
2021/07/27 09:40:48;;;;;;;4.97;4.17;;;28.10;64.60;;;;;;5040456;28;20444;-68
2021/07/27 09:43:17;;;;;;;6.60;3.97;;;27.90;62.30;;;;;;4991603;28;20574;-68
2021/07/27 09:45:46;;;;;;;3.87;3.03;;;27.60;64.50;;;;;;5013539;28;20462;-68
2021/07/27 09:48:16;;;;;;;3.90;3.03;;;27.50;65.70;;;;;;5013126;28;20442;-68
2021/07/27 09:50:46;;;;;;;5.70;3.60;;;27.40;64.60;;;;;;5010515;28;20526;-68
2021/07/27 09:53:13;;;;;;;4.17;3.40;;;27.20;62.80;;;;;;5002058;28;20445;-70
2021/07/27 09:55:40;;;;;;;5.63;3.90;;;27.00;63.50;;;;;;4992428;28;20534;-68
2021/07/27 09:58:07;;;;;;;4.23;3.53;;;26.90;61.80;;;;;;4989857;28;20475;-68
2021/07/27 10:00:40;;;;;;;5.73;3.47;;;27.00;61.40;;;;;;4993317;28;20444;-68
2021/07/27 10:03:13;;;;;;;4.30;3.30;;;27.10;63.60;;;;;;5055413;28;20731;-68
2021/07/27 10:05:42;;;;;;;4.20;3.23;;;27.30;65.80;;;;;;4998503;28;20440;-69
2021/07/27 10:08:11;;;;;;;5.00;3.73;;;27.40;62.90;;;;;;5000338;28;20531;-68
2021/07/27 10:10:43;;;;;;;4.33;3.60;;;27.50;61.40;;;;;;5009602;28;20486;-68
2021/07/27 10:13:13;;;;;;;5.10;3.70;;;27.60;59.50;;;;;;5009207;28;20434;-68
2021/07/27 10:15:45;;;;;;;4.60;3.67;;;27.50;59.20;;;;;;5009309;28;20439;-69
2021/07/27 10:18:18;;;;;;;5.00;3.50;;;27.50;61.40;;;;;;5011444;28;20921;-75
2021/07/27 10:20:45;;;;;;;5.07;3.70;;;27.60;61.50;;;;;;5015394;28;20432;-69
2021/07/27 10:23:17;;;;;;;4.93;3.63;;;27.80;62.00;;;;;;5010014;28;20440;-69
2021/07/27 10:25:55;;;;;;;5.40;3.70;;;27.90;61.50;;;;;;5009844;28;20522;-70
2021/07/27 10:28:24;;;;;;;6.10;3.60;;;28.20;62.10;;;;;;5069913;28;20469;-68
2021/07/27 10:31:04;;;;;;;3.97;3.40;;;28.50;63.60;;;;;;5022680;28;20514;-68
2021/07/27 10:33:32;;;;;;;4.60;3.43;;;28.80;59.40;;;;;;5015242;28;20450;-68
2021/07/27 10:35:59;;;;;;;4.73;3.43;;;29.00;56.90;;;;;;4995836;28;20967;-68
2021/07/27 10:38:39;;;;;;;3.83;2.97;;;29.00;54.50;;;;;;4992807;28;20446;-68
2021/07/27 10:41:17;;;;;;;3.73;3.13;;;29.10;55.70;;;;;;4997121;28;20456;-68
2021/07/27 10:43:44;;;;;;;4.97;3.30;;;29.00;53.20;;;;;;4993128;28;20438;-71
2021/07/27 10:46:11;;;;;;;5.10;3.73;;;28.90;53.20;;;;;;4992564;28;20443;-69
2021/07/27 10:48:40;;;;;;;5.33;3.37;;;28.80;54.10;;;;;;5007189;28;20465;-73
2021/07/27 10:51:07;;;;;;;4.60;3.47;;;28.70;53.60;;;;;;4997925;28;20434;-69
2021/07/27 10:53:36;;;;;;;4.27;3.60;;;28.40;53.30;;;;;;4992633;28;20770;-69
2021/07/27 10:56:06;;;;;;;5.93;3.23;;;28.10;53.20;;;;;;4995747;28;20801;-68
2021/07/27 10:58:35;;;;;;;4.00;3.40;;;27.80;53.30;;;;;;4992542;28;20441;-68
2021/07/27 11:01:10;;;;;;;4.73;3.10;;;27.50;54.40;;;;;;4992017;28;20498;-68
2021/07/27 11:03:40;;;;;;;4.93;3.50;;;27.20;55.30;;;;;;5073548;28;20434;-68
2021/07/27 11:06:08;;;;;;;5.20;3.37;;;27.10;55.60;;;;;;4994782;28;20524;-70
2021/07/27 11:08:37;;;;;;;3.83;2.90;;;27.00;57.30;;;;;;4995403;28;20893;-68
2021/07/27 11:11:11;;;;;;;4.70;3.10;;;27.00;56.30;;;;;;5006780;28;20518;-68
2021/07/27 11:13:42;;;;;;;4.83;3.23;;;27.10;54.90;;;;;;4999972;28;20475;-69
2021/07/27 11:16:10;;;;;;;4.83;3.10;;;27.30;55.90;;;;;;5048756;28;20439;-68
2021/07/27 11:18:42;;;;;;;3.47;2.63;;;27.60;56.00;;;;;;5011802;28;20463;-68
2021/07/27 11:21:10;;;;;;;6.07;3.60;;;27.80;56.00;;;;;;5009895;28;20511;-69
2021/07/27 11:23:45;;;;;;;4.20;3.80;;;28.00;56.70;;;;;;5067542;28;20431;-69
2021/07/27 11:26:14;;;;;;;3.43;2.87;;;28.20;54.60;;;;;;5016659;28;20440;-68
2021/07/27 11:28:41;;;;;;;4.50;3.50;;;28.30;53.80;;;;;;5076668;28;20914;-70
2021/07/27 11:31:19;;;;;;;4.27;3.63;;;28.40;55.70;;;;;;4994920;28;20524;-70
2021/07/27 11:33:50;;;;;;;4.77;3.60;;;28.40;55.30;;;;;;4991459;28;20830;-69
2021/07/27 11:36:28;;;;;;;4.90;3.80;;;28.40;55.00;;;;;;4992526;28;20497;-69
2021/07/27 11:39:06;;;;;;;3.77;3.27;;;28.40;53.50;;;;;;5044779;28;20884;-68
2021/07/27 11:41:34;;;;;;;5.90;3.57;;;28.40;55.80;;;;;;5080994;28;20834;-69
2021/07/27 11:44:01;;;;;;;3.50;2.97;;;28.40;55.90;;;;;;5058777;28;20453;-69
2021/07/27 11:46:34;;;;;;;4.13;3.47;;;28.40;55.90;;;;;;5021969;28;20505;-70
2021/07/27 11:49:01;;;;;;;4.33;3.10;;;28.40;55.30;;;;;;4993477;28;20500;-68
2021/07/27 11:51:41;;;;;;;4.80;3.33;;;28.40;55.60;;;;;;4990436;28;20487;-69
2021/07/27 11:54:09;;;;;;;4.90;3.47;;;28.50;56.10;;;;;;4991381;28;21177;-68
2021/07/27 11:56:46;;;;;;;3.60;3.07;;;28.70;54.10;;;;;;4992835;28;20439;-73
2021/07/27 11:59:14;;;;;;;3.17;2.50;;;29.00;54.60;;;;;;5019454;28;20975;-69
2021/07/27 12:01:43;;;;;;;3.93;3.43;;;29.10;53.70;;;;;;5007042;28;20960;-68
2021/07/27 12:04:11;;;;;;;6.27;4.57;;;29.20;54.00;;;;;;5007477;28;20462;-68
2021/07/27 12:06:47;;;;;;;3.90;3.43;;;29.30;53.50;;;;;;5008118;28;20438;-69
2021/07/27 12:09:19;;;;;;;5.20;3.27;;;29.20;54.10;;;;;;5007891;28;20466;-68
2021/07/27 12:11:50;;;;;;;4.33;3.93;;;29.10;54.20;;;;;;4992113;28;20442;-68
2021/07/27 12:14:18;;;;;;;5.87;4.00;;;28.90;54.60;;;;;;5001259;28;20441;-69
2021/07/27 12:16:48;;;;;;;4.90;3.80;;;28.60;52.90;;;;;;5010211;28;20488;-68
2021/07/27 12:19:15;;;;;;;6.40;3.70;;;28.30;54.90;;;;;;5010323;28;20506;-70
2021/07/27 12:21:46;;;;;;;4.60;3.67;;;27.90;55.00;;;;;;5011015;28;20436;-68
2021/07/27 12:24:15;;;;;;;5.73;3.93;;;27.60;56.30;;;;;;5010491;28;20991;-68
2021/07/27 12:26:42;;;;;;;5.20;3.80;;;27.40;56.40;;;;;;5010582;28;20442;-69
2021/07/27 12:29:10;;;;;;;6.17;4.33;;;27.20;57.90;;;;;;5008422;28;20463;-69
2021/07/27 12:31:37;;;;;;;5.70;3.67;;;27.10;57.80;;;;;;5002279;28;20432;-68
2021/07/27 12:34:04;;;;;;;4.43;3.67;;;26.90;58.20;;;;;;4989933;28;20444;-69
2021/07/27 12:36:33;;;;;;;5.27;3.60;;;26.90;58.30;;;;;;5005204;28;20537;-68
2021/07/27 12:39:00;;;;;;;5.30;4.07;;;26.70;59.40;;;;;;5010072;28;20549;-68
2021/07/27 12:41:29;;;;;;;4.60;3.90;;;26.70;59.80;;;;;;5009231;28;20995;-68
2021/07/27 12:44:01;;;;;;;5.10;3.50;;;26.60;61.50;;;;;;5010328;28;20990;-68
2021/07/27 12:46:28;;;;;;;8.90;4.10;;;26.60;61.20;;;;;;5009721;28;20435;-68
2021/07/27 12:48:59;;;;;;;5.97;3.37;;;26.40;60.00;;;;;;5010391;28;20921;-68
2021/07/27 12:51:27;;;;;;;4.97;4.00;;;26.30;62.90;;;;;;5010007;28;20832;-68
2021/07/27 12:53:56;;;;;;;5.87;4.40;;;26.30;63.80;;;;;;5010047;28;20791;-68
2021/07/27 12:56:23;;;;;;;5.60;4.27;;;26.30;63.90;;;;;;5010388;28;20435;-68
2021/07/27 12:58:51;;;;;;;5.70;4.10;;;26.40;63.40;;;;;;5009799;28;20439;-68
2021/07/27 13:01:18;;;;;;;3.80;3.20;;;26.40;62.90;;;;;;5010298;28;20445;-68
2021/07/27 13:03:50;;;;;;;5.60;3.47;;;26.40;62.30;;;;;;5008865;28;20932;-71
2021/07/27 13:06:17;;;;;;;5.83;3.97;;;26.40;63.30;;;;;;5010175;28;20435;-68
2021/07/27 13:08:45;;;;;;;5.00;3.33;;;26.40;63.50;;;;;;5006770;28;20451;-68
2021/07/27 13:11:12;;;;;;;5.50;4.63;;;26.30;64.90;;;;;;4990360;28;21011;-68